Time;durP1;ratioP1;P1;durP2;ratioP2;P2;SDS_P1;SDS_P2;PMS_P1;PMS_P2;Temp;Humidity;BMP_temperature;BMP_pressure;BME280_temperature;BME280_humidity;BME280_pressure;Samples;Min_cycle;Max_cycle;Signal;HPM_P1;HPM_P2
2022/07/30 00:00:53;;;;;;;7.38;4.72;;;;;;;-144.47;68.77;53197.72;5012379;28;20053;-67
2022/07/30 00:03:18;;;;;;;8.75;4.72;;;;;;;-144.47;68.33;53191.78;4996661;28;20093;-65
2022/07/30 00:05:44;;;;;;;13.38;4.75;;;;;;;-144.47;67.73;53175.88;5011831;28;20029;-66
2022/07/30 00:08:09;;;;;;;8.77;4.85;;;;;;;-144.47;68.15;53229.50;5009972;28;20018;-66
2022/07/30 00:10:35;;;;;;;13.90;5.43;;;;;;;-144.47;68.41;53201.69;5011635;28;20290;-66
2022/07/30 00:13:00;;;;;;;10.13;5.00;;;;;;;-144.47;68.70;53203.69;5010994;28;20505;-65
2022/07/30 00:15:26;;;;;;;10.95;5.70;;;;;;;-144.47;69.04;53199.72;5011680;28;20053;-65
2022/07/30 00:17:51;;;;;;;9.68;5.95;;;;;;;-144.47;69.45;53199.72;4977642;28;20471;-65
2022/07/30 00:20:16;;;;;;;9.70;5.28;;;;;;;-144.47;69.46;53169.91;5011811;28;20026;-65
2022/07/30 00:22:42;;;;;;;12.25;5.05;;;;;;;-144.47;69.62;53189.78;5008336;28;20040;-65
2022/07/30 00:25:07;;;;;;;9.95;4.90;;;;;;;-144.47;68.82;53201.69;5011574;28;20088;-65
2022/07/30 00:27:34;;;;;;;10.88;5.75;;;;;;;-144.47;69.30;53189.78;4994262;28;20054;-66
2022/07/30 00:30:00;;;;;;;9.32;5.53;;;;;;;-144.47;69.53;53193.75;4995036;28;20109;-65
2022/07/30 00:32:26;;;;;;;8.43;5.38;;;;;;;-144.47;69.99;53197.72;5011984;28;20076;-66
2022/07/30 00:34:51;;;;;;;12.82;5.50;;;;;;;-144.47;70.52;53199.72;5011215;28;20344;-66
2022/07/30 00:37:16;;;;;;;11.95;5.85;;;;;;;-144.47;70.59;53187.78;4989973;28;20065;-66
2022/07/30 00:39:42;;;;;;;12.93;5.65;;;;;;;-144.47;70.69;53209.66;5002200;28;20029;-66
2022/07/30 00:42:07;;;;;;;10.38;5.55;;;;;;;-144.47;70.61;53156.00;5010435;28;20506;-66
2022/07/30 00:44:32;;;;;;;12.23;5.32;;;;;;;-144.47;70.82;53197.72;4994638;28;20071;-65
2022/07/30 00:46:58;;;;;;;10.70;5.75;;;;;;;-144.47;70.64;53161.97;4993928;28;20130;-67
2022/07/30 00:49:24;;;;;;;9.10;5.80;;;;;;;-144.47;70.98;53197.72;5010959;28;20104;-66
2022/07/30 00:51:50;;;;;;;14.27;6.07;;;;;;;-144.47;70.60;53197.72;5010536;28;20475;-66
2022/07/30 00:54:16;;;;;;;12.48;5.93;;;;;;;-144.47;71.16;53215.59;4993640;28;20096;-64
2022/07/30 00:56:42;;;;;;;12.90;6.45;;;;;;;-144.47;71.90;53189.78;5009741;28;20026;-66
2022/07/30 00:59:08;;;;;;;12.50;6.43;;;;;;;-144.47;71.90;53209.66;5012147;28;20079;-65
2022/07/30 01:01:34;;;;;;;10.85;6.00;;;;;;;-144.47;72.18;53221.56;5004208;28;20033;-65
2022/07/30 01:04:00;;;;;;;12.00;7.13;;;;;;;-144.47;73.57;53211.63;5010574;28;20057;-66
2022/07/30 01:06:26;;;;;;;13.40;7.75;;;;;;;-144.47;73.29;53223.56;5009994;28;20514;-64
2022/07/30 01:08:53;;;;;;;12.32;8.00;;;;;;;-144.47;74.50;53181.84;5010007;28;20034;-65
2022/07/30 01:11:19;;;;;;;13.82;7.72;;;;;;;-144.47;73.61;53221.56;5010580;28;20029;-65
2022/07/30 01:13:44;;;;;;;18.45;7.75;;;;;;;-144.47;74.02;53173.88;5010330;28;20101;-67
2022/07/30 01:16:10;;;;;;;13.60;7.85;;;;;;;-144.47;74.14;53213.63;5010239;28;20108;-65
2022/07/30 01:21:31;;;;;;;11.55;7.68;;;;;;;-144.47;74.64;53209.66;4996870;28;20037;-67
2022/07/30 01:24:01;;;;;;;15.55;8.68;;;;;;;-144.47;75.26;53193.75;5009020;28;20022;-67
2022/07/30 01:26:28;;;;;;;19.02;8.50;;;;;;;-144.47;75.51;53213.63;4993170;28;20030;-67
2022/07/30 01:28:55;;;;;;;18.15;8.65;;;;;;;-144.47;75.61;53213.63;4977668;28;20038;-66
2022/07/30 01:31:22;;;;;;;16.50;8.88;;;;;;;-144.47;75.48;53225.53;5010059;28;20395;-66
2022/07/30 01:33:49;;;;;;;18.67;9.18;;;;;;;-144.47;75.59;53245.41;5010052;28;20029;-67
2022/07/30 01:36:19;;;;;;;17.40;8.73;;;;;;;-144.47;75.72;53241.44;5009422;28;20056;-66
2022/07/30 01:38:47;;;;;;;15.60;9.35;;;;;;;-144.47;75.95;53245.41;5008949;28;20025;-66
2022/07/30 01:41:14;;;;;;;15.57;9.70;;;;;;;-144.47;76.00;53215.59;5009683;28;20034;-64
2022/07/30 01:43:41;;;;;;;13.65;8.70;;;;;;;-144.47;76.08;53211.63;5009874;28;20141;-68
2022/07/30 01:46:08;;;;;;;16.10;9.50;;;;;;;-144.47;76.23;53233.47;5009265;28;20025;-66
2022/07/30 01:48:39;;;;;;;13.52;8.90;;;;;;;-144.47;76.26;53207.66;5008672;28;20040;-65
2022/07/30 01:51:06;;;;;;;15.60;9.50;;;;;;;-144.47;76.03;53221.56;4987333;28;20022;-66
2022/07/30 01:53:35;;;;;;;21.05;11.05;;;;;;;-144.47;76.90;53213.63;5006211;28;20476;-66
2022/07/30 01:56:01;;;;;;;20.63;10.68;;;;;;;-144.47;76.28;53197.72;4993475;28;20030;-65
2022/07/30 01:58:32;;;;;;;15.57;9.68;;;;;;;-144.47;76.51;53203.69;5008908;28;20104;-65
2022/07/30 02:00:58;;;;;;;16.40;10.18;;;;;;;-144.47;76.82;53225.53;4993252;28;20472;-66
2022/07/30 02:03:28;;;;;;;17.33;10.52;;;;;;;-144.47;76.90;53247.38;5009407;28;20036;-65
2022/07/30 02:06:00;;;;;;;22.70;12.05;;;;;;;-144.47;76.85;53211.63;5012295;28;20086;-66
2022/07/30 02:08:35;;;;;;;18.85;10.80;;;;;;;-144.47;77.24;53183.81;4993646;28;20026;-64
2022/07/30 02:11:07;;;;;;;36.72;11.48;;;;;;;-144.47;77.13;53225.53;5010932;28;20022;-65
2022/07/30 02:13:40;;;;;;;20.00;11.77;;;;;;;-144.47;77.40;53249.38;5009706;28;20026;-66
2022/07/30 02:16:13;;;;;;;19.25;10.63;;;;;;;-144.47;76.80;53181.84;5009497;28;20026;-65
2022/07/30 02:18:42;;;;;;;22.45;11.40;;;;;;;-144.47;76.58;53241.44;5009666;28;20403;-65
2022/07/30 02:21:09;;;;;;;22.27;11.13;;;;;;;-144.47;77.00;53245.41;5011580;28;20053;-67
2022/07/30 02:23:40;;;;;;;19.40;11.07;;;;;;;-144.47;77.04;53197.72;5006046;28;20280;-67
2022/07/30 02:26:08;;;;;;;19.05;11.00;;;;;;;-144.47;76.59;53209.66;4996163;28;20075;-66
2022/07/30 02:28:37;;;;;;;17.80;10.55;;;;;;;-144.47;76.45;53233.47;5011662;28;20065;-65
2022/07/30 02:31:06;;;;;;;19.40;10.75;;;;;;;-144.47;76.85;53253.34;5009648;28;20026;-65
2022/07/30 02:33:40;;;;;;;;;;;;;;;-144.47;76.84;53225.53;4992916;28;20173;-65
2022/07/30 02:36:07;;;;;;;22.45;11.90;;;;;;;-144.47;76.96;53241.44;4998060;28;19909;-65
2022/07/30 02:38:35;;;;;;;23.63;12.30;;;;;;;-144.47;76.77;53245.41;5009026;28;20022;-65
2022/07/30 02:41:02;;;;;;;22.87;12.27;;;;;;;-144.47;77.44;53239.44;4993161;28;20057;-65
2022/07/30 02:43:30;;;;;;;20.92;11.90;;;;;;;-144.47;77.67;53263.28;5009158;28;20464;-65
2022/07/30 02:45:58;;;;;;;29.23;13.38;;;;;;;-144.47;77.87;53211.63;5010013;28;20415;-65
2022/07/30 02:48:26;;;;;;;27.95;14.15;;;;;;;-144.47;77.92;53207.66;5007537;28;20149;-66
2022/07/30 02:50:54;;;;;;;25.60;13.35;;;;;;;-144.47;78.12;53233.47;5008502;28;20546;-67
2022/07/30 02:53:21;;;;;;;22.45;13.00;;;;;;;-144.47;77.94;53237.44;5007485;28;20033;-66
2022/07/30 02:55:48;;;;;;;24.70;14.10;;;;;;;-144.47;78.62;53243.41;4992887;28;20030;-66
2022/07/30 02:58:22;;;;;;;21.83;12.55;;;;;;;-144.47;78.50;53271.22;5007245;28;20053;-66
2022/07/30 03:00:49;;;;;;;21.52;13.55;;;;;;;-144.47;78.91;53241.44;5005238;28;20118;-64
2022/07/30 03:03:16;;;;;;;25.10;13.55;;;;;;;-144.47;78.69;53233.47;5005830;28;20029;-66
2022/07/30 03:05:42;;;;;;;26.30;12.93;;;;;;;-144.47;78.47;53261.28;4992725;28;20060;-66
2022/07/30 03:08:08;;;;;;;23.75;14.00;;;;;;;-144.47;78.74;53221.56;4974508;28;20503;-65
2022/07/30 03:10:36;;;;;;;27.73;12.98;;;;;;;-144.47;78.42;53243.41;4992592;28;20018;-66
2022/07/30 03:13:05;;;;;;;31.75;14.90;;;;;;;-144.47;78.71;53219.56;5011878;28;20075;-66
2022/07/30 03:15:33;;;;;;;24.10;14.90;;;;;;;-144.47;78.74;53231.50;5014006;28;20032;-65
2022/07/30 03:18:00;;;;;;;27.98;15.07;;;;;;;-144.47;78.64;53257.31;4995588;28;20056;-66
2022/07/30 03:20:29;;;;;;;27.73;14.20;;;;;;;-144.47;78.44;53217.59;5016687;23;20050;-68
2022/07/30 03:22:57;;;;;;;21.13;13.52;;;;;;;-144.47;78.32;53241.44;5013076;28;20568;-68
2022/07/30 03:25:25;;;;;;;31.70;15.20;;;;;;;-144.47;78.40;53263.28;5013555;28;20044;-67
2022/07/30 03:27:53;;;;;;;28.98;15.65;;;;;;;-144.47;78.40;53227.53;5047096;28;20021;-69
2022/07/30 03:30:18;;;;;;;30.83;16.30;;;;;;;-144.47;78.49;53213.63;5012058;28;20029;-67
2022/07/30 03:32:45;;;;;;;32.03;15.70;;;;;;;-144.47;78.59;53229.50;5025019;28;20046;-68
2022/07/30 03:35:11;;;;;;;36.53;16.17;;;;;;;-144.47;78.59;53239.44;5005340;28;20476;-69
2022/07/30 03:37:39;;;;;;;33.13;16.60;;;;;;;-144.47;78.84;53229.50;5010170;28;20068;-70
2022/07/30 03:40:05;;;;;;;36.30;17.10;;;;;;;-144.47;78.96;53265.25;5011715;28;20024;-69
2022/07/30 03:42:33;;;;;;;31.55;16.15;;;;;;;-144.47;78.79;53281.16;5011292;28;20037;-68
2022/07/30 03:45:02;;;;;;;36.35;15.65;;;;;;;-144.47;78.64;53227.53;5011898;28;20049;-67
2022/07/30 03:47:30;;;;;;;;;;;;;;;-144.47;78.64;53221.56;5027609;28;20076;-68
2022/07/30 03:49:56;;;;;;;28.52;15.73;;;;;;;-144.47;79.04;53265.25;5009110;28;20273;-68
2022/07/30 03:52:21;;;;;;;35.80;16.52;;;;;;;-144.47;78.84;53235.47;5011963;28;20091;-68
2022/07/30 03:54:47;;;;;;;28.63;15.27;;;;;;;-144.47;78.67;53227.53;5028134;28;20594;-68
2022/07/30 03:57:13;;;;;;;36.40;17.60;;;;;;;-144.47;78.74;53215.59;5001347;28;20029;-66
2022/07/30 03:59:39;;;;;;;43.05;16.65;;;;;;;-144.47;78.41;53235.47;5005978;28;20029;-68
2022/07/30 04:02:04;;;;;;;30.85;17.13;;;;;;;-144.47;78.27;53261.28;5012761;28;20384;-68
2022/07/30 04:04:30;;;;;;;28.33;15.93;;;;;;;-144.47;77.92;53257.31;5012236;28;20079;-68
2022/07/30 04:06:57;;;;;;;33.88;17.35;;;;;;;-144.47;78.12;53221.56;5010046;28;20022;-68
2022/07/30 04:09:23;;;;;;;35.05;17.52;;;;;;;-144.47;78.25;53239.44;5027094;28;20026;-69
2022/07/30 04:11:48;;;;;;;33.13;17.05;;;;;;;-144.47;78.53;53251.34;5011001;28;20022;-66
2022/07/30 04:14:14;;;;;;;36.35;16.98;;;;;;;-144.47;78.86;53259.31;5012538;28;20372;-69
2022/07/30 04:16:50;;;;;;;35.42;17.27;;;;;;;-144.47;79.07;53225.53;5010090;28;20026;-68
2022/07/30 04:19:24;;;;;;;39.67;18.00;;;;;;;-144.47;79.49;53243.41;5011249;28;20505;-68
2022/07/30 04:21:51;;;;;;;44.47;19.58;;;;;;;-144.47;80.18;53239.44;5025564;28;20108;-68
2022/07/30 04:24:19;;;;;;;35.20;19.52;;;;;;;-144.47;80.53;53241.44;5008180;28;20068;-69
2022/07/30 04:26:46;;;;;;;37.95;20.00;;;;;;;-144.47;81.20;53229.50;5010152;28;20041;-67
2022/07/30 04:29:12;;;;;;;39.65;21.02;;;;;;;-144.47;82.02;53249.38;5027325;28;20483;-65
2022/07/30 04:31:38;;;;;;;40.92;21.98;;;;;;;-144.47;82.45;53253.34;5027104;28;20043;-68
2022/07/30 04:34:04;;;;;;;49.63;21.17;;;;;;;-144.47;82.87;53243.41;5017159;28;20053;-69
2022/07/30 04:36:32;;;;;;;41.97;22.83;;;;;;;-144.47;83.84;53229.50;5026493;28;20438;-68
2022/07/30 04:38:58;;;;;;;47.35;23.55;;;;;;;-144.47;83.98;53241.44;5025922;28;20033;-69
2022/07/30 04:41:24;;;;;;;53.80;32.20;;;;;;;-144.47;83.88;53205.66;5011534;28;20051;-69
2022/07/30 04:43:51;;;;;;;47.25;24.67;;;;;;;-144.47;84.43;53263.28;5011628;28;20121;-69
2022/07/30 04:46:17;;;;;;;43.25;23.00;;;;;;;-144.47;84.29;53247.38;5011275;28;20061;-66
2022/07/30 04:48:42;;;;;;;43.33;23.45;;;;;;;-144.47;84.69;53241.44;5009920;28;20053;-68
2022/07/30 04:51:15;;;;;;;46.20;23.20;;;;;;;-144.47;84.91;53253.34;5010573;28;20391;-68
2022/07/30 04:53:41;;;;;;;44.55;23.90;;;;;;;-144.47;85.31;53281.16;5026024;28;20335;-68
2022/07/30 04:56:08;;;;;;;39.72;22.35;;;;;;;-144.47;84.86;53247.38;5008082;28;20092;-68
2022/07/30 04:58:35;;;;;;;43.70;24.42;;;;;;;-144.47;84.73;53269.22;4963167;28;20051;-69
2022/07/30 05:01:02;;;;;;;40.35;23.80;;;;;;;-144.47;84.36;53243.41;5010214;28;20515;-69
2022/07/30 05:03:30;;;;;;;56.58;28.38;;;;;;;-144.47;84.84;53237.44;5024151;28;20033;-67
2022/07/30 05:05:57;;;;;;;55.10;28.45;;;;;;;-144.47;84.71;53257.31;5026542;28;20103;-69
2022/07/30 05:08:27;;;;;;;57.10;28.58;;;;;;;-144.47;84.13;53211.63;5009885;28;20108;-67
2022/07/30 05:10:52;;;;;;;56.72;28.75;;;;;;;-144.47;83.98;53215.59;5011339;28;20036;-70
2022/07/30 05:13:18;;;;;;;51.42;27.02;;;;;;;-144.47;83.61;53305.00;4997280;28;20022;-67
2022/07/30 05:15:43;;;;;;;47.92;28.92;;;;;;;-144.47;83.84;53273.22;5010168;28;20113;-66
2022/07/30 05:18:09;;;;;;;45.17;26.00;;;;;;;-144.47;83.43;53287.13;5009361;28;20026;-69
2022/07/30 05:20:35;;;;;;;38.25;18.83;;;;;;;-144.47;81.05;53231.50;5026444;28;20025;-67
2022/07/30 05:23:00;;;;;;;41.83;20.83;;;;;;;-144.47;80.78;53227.53;5008726;28;20554;-69
2022/07/30 05:25:26;;;;;;;36.83;19.25;;;;;;;-144.47;80.59;53261.28;5026053;28;20033;-68
2022/07/30 05:27:51;;;;;;;39.85;20.02;;;;;;;-144.47;80.80;53273.22;5010150;28;20069;-69
2022/07/30 05:30:17;;;;;;;33.95;17.88;;;;;;;-144.47;80.43;53277.19;5009759;28;20105;-66
2022/07/30 05:32:42;;;;;;;39.45;17.92;;;;;;;-144.47;79.69;53217.59;5023608;28;20045;-66
2022/07/30 05:35:08;;;;;;;35.95;17.98;;;;;;;-144.47;79.34;53275.19;5001611;28;20025;-68
2022/07/30 05:37:33;;;;;;;31.60;16.52;;;;;;;-144.47;78.37;53239.44;5024001;28;20458;-69
2022/07/30 05:39:59;;;;;;;34.22;18.55;;;;;;;-144.47;78.62;53221.56;5025980;28;20053;-69
2022/07/30 05:42:24;;;;;;;34.40;17.52;;;;;;;-144.47;78.78;53241.44;5026307;28;20056;-68
2022/07/30 05:44:50;;;;;;;31.58;17.13;;;;;;;-144.47;78.63;53219.56;5026121;28;20493;-68
2022/07/30 05:47:17;;;;;;;34.78;17.70;;;;;;;-144.47;79.09;53285.13;5009995;28;20483;-66
2022/07/30 05:49:42;;;;;;;31.88;17.52;;;;;;;-144.47;79.50;53233.47;5008430;28;20018;-68
2022/07/30 05:52:07;;;;;;;29.83;17.17;;;;;;;-144.47;78.97;53249.38;5023111;28;20095;-67
2022/07/30 05:54:33;;;;;;;34.17;17.65;;;;;;;-144.47;78.64;53269.22;5009094;28;20053;-68
2022/07/30 05:56:58;;;;;;;34.80;18.08;;;;;;;-144.47;77.90;53241.44;4999174;28;20412;-67
2022/07/30 05:59:24;;;;;;;35.55;18.45;;;;;;;-144.47;78.10;53257.31;4985521;28;20061;-68
2022/07/30 06:01:49;;;;;;;32.92;17.95;;;;;;;-144.47;77.40;53261.28;5010383;28;20080;-67
2022/07/30 06:04:14;;;;;;;46.35;17.83;;;;;;;-144.47;77.38;53269.22;5008950;28;20021;-68
2022/07/30 06:06:40;;;;;;;35.70;19.60;;;;;;;-144.47;77.74;53291.09;5009449;28;20032;-68
2022/07/30 06:09:05;;;;;;;30.90;17.75;;;;;;;-144.47;78.09;53261.28;5009237;28;20479;-66
2022/07/30 06:11:31;;;;;;;30.40;17.90;;;;;;;-144.47;77.78;53263.28;5010486;28;20526;-66
2022/07/30 06:13:56;;;;;;;31.92;18.13;;;;;;;-144.47;77.77;53241.44;5008804;28;20042;-68
2022/07/30 06:16:21;;;;;;;33.55;17.77;;;;;;;-144.47;77.64;53265.25;5024575;28;20083;-65
2022/07/30 06:18:47;;;;;;;31.30;18.73;;;;;;;-144.47;77.50;53241.44;5024702;28;20488;-68
2022/07/30 06:21:13;;;;;;;29.13;17.63;;;;;;;-144.47;78.54;53265.25;5010003;28;20018;-68
2022/07/30 06:23:38;;;;;;;38.72;18.10;;;;;;;-144.47;78.20;53316.91;4997486;28;20079;-68
2022/07/30 06:26:04;;;;;;;33.40;17.67;;;;;;;-144.47;77.81;53257.31;4995469;28;20157;-71
2022/07/30 06:28:29;;;;;;;33.40;18.77;;;;;;;-144.47;77.77;53247.38;5008213;28;20113;-68
2022/07/30 06:30:55;;;;;;;33.38;17.92;;;;;;;-144.47;77.22;53237.44;5009973;28;20030;-66
2022/07/30 06:33:21;;;;;;;36.30;19.50;;;;;;;-144.47;77.78;53245.41;5016990;28;20124;-67
2022/07/30 06:35:47;;;;;;;34.40;18.45;;;;;;;-144.47;77.97;53257.31;4990728;28;20121;-68
2022/07/30 06:38:13;;;;;;;33.08;17.98;;;;;;;-144.47;77.75;53271.22;5023133;28;20030;-69
2022/07/30 06:40:38;;;;;;;33.95;18.30;;;;;;;-144.47;77.33;53231.50;5013240;28;20534;-68
2022/07/30 06:43:04;;;;;;;33.22;18.02;;;;;;;-144.47;77.24;53245.41;5025353;28;20096;-65
2022/07/30 06:45:29;;;;;;;30.48;18.77;;;;;;;-144.47;77.46;53261.28;5024862;28;20030;-66
2022/07/30 06:47:58;;;;;;;36.60;18.30;;;;;;;-144.47;76.87;53271.22;5007734;28;20030;-70
2022/07/30 06:50:25;;;;;;;35.63;20.63;;;;;;;-144.47;77.32;53249.38;5024776;28;20491;-67
2022/07/30 06:52:51;;;;;;;33.15;19.65;;;;;;;-144.47;77.31;53257.31;5008616;28;20048;-67
2022/07/30 06:55:16;;;;;;;38.00;19.45;;;;;;;-144.47;77.28;53243.41;5009841;28;20467;-69
2022/07/30 06:57:41;;;;;;;37.10;19.55;;;;;;;-144.47;77.32;53241.44;4993540;28;20492;-68
2022/07/30 07:00:07;;;;;;;33.60;21.98;;;;;;;-144.47;77.27;53251.34;4988035;28;20084;-69
2022/07/30 07:02:33;;;;;;;47.58;21.42;;;;;;;-144.47;77.04;53245.41;4988521;28;20103;-67
2022/07/30 07:04:58;;;;;;;40.88;19.88;;;;;;;-144.47;76.96;53241.44;5006250;28;20038;-68
2022/07/30 07:07:24;;;;;;;53.05;21.50;;;;;;;-144.47;77.51;53277.19;5008339;28;20422;-68
2022/07/30 07:09:49;;;;;;;39.35;19.63;;;;;;;-144.47;77.10;53243.41;5024827;28;20050;-66
2022/07/30 07:12:14;;;;;;;47.10;19.42;;;;;;;-144.47;75.63;53269.22;4999922;28;20022;-67
2022/07/30 07:14:40;;;;;;;37.53;18.55;;;;;;;-144.47;76.29;53217.59;5008207;28;20442;-68
2022/07/30 07:17:05;;;;;;;38.20;18.75;;;;;;;-144.47;76.48;53253.34;5023939;28;20145;-68
2022/07/30 07:19:31;;;;;;;33.33;17.70;;;;;;;-144.47;76.36;53221.56;5007714;28;20026;-68
2022/07/30 07:21:57;;;;;;;32.13;17.02;;;;;;;-144.47;76.22;53231.50;5007340;28;20041;-69
2022/07/30 07:24:22;;;;;;;31.30;16.13;;;;;;;-144.47;75.93;53269.22;5009248;28;20138;-67
2022/07/30 07:26:48;;;;;;;34.55;17.67;;;;;;;-144.47;76.81;53245.41;5007410;28;20318;-68
2022/07/30 07:29:13;;;;;;;40.70;17.67;;;;;;;-144.47;77.14;53239.44;5024383;28;20061;-69
2022/07/30 07:31:39;;;;;;;39.88;18.58;;;;;;;-144.47;77.45;53253.34;5008296;28;20096;-67
2022/07/30 07:34:05;;;;;;;41.72;18.27;;;;;;;-144.47;77.32;53265.25;4999668;28;20392;-71
2022/07/30 07:36:30;;;;;;;39.97;19.77;;;;;;;-144.47;77.72;53265.25;5007617;28;20476;-68
2022/07/30 07:38:56;;;;;;;35.05;18.08;;;;;;;-144.47;77.05;53273.22;5023439;28;20030;-67
2022/07/30 07:41:21;;;;;;;36.33;16.73;;;;;;;-144.47;75.83;53241.44;5024394;28;20040;-68
2022/07/30 07:43:47;;;;;;;31.23;16.48;;;;;;;-144.47;76.43;53275.19;5024072;28;20442;-69
2022/07/30 07:46:15;;;;;;;40.67;17.70;;;;;;;-144.47;75.31;53245.41;5007592;28;20053;-64
2022/07/30 07:48:42;;;;;;;36.28;15.43;;;;;;;-144.47;75.11;53283.13;5023571;28;20029;-67
2022/07/30 07:51:07;;;;;;;30.92;14.63;;;;;;;-144.47;74.98;53255.34;5007732;28;20041;-69
2022/07/30 07:53:32;;;;;;;46.60;18.52;;;;;;;-144.47;75.67;53239.44;5008009;28;20065;-65
2022/07/30 07:55:58;;;;;;;37.55;14.35;;;;;;;-144.47;74.59;53271.22;5006989;28;20037;-67
2022/07/30 07:58:24;;;;;;;26.05;13.43;;;;;;;-144.47;74.57;53261.28;4995403;28;20495;-69
2022/07/30 08:00:50;;;;;;;35.55;14.45;;;;;;;-144.47;73.89;53237.44;5025925;28;20574;-69
2022/07/30 08:03:15;;;;;;;29.55;14.25;;;;;;;-144.47;74.44;53267.25;5009683;28;20112;-67
2022/07/30 08:05:40;;;;;;;41.20;16.13;;;;;;;-144.47;74.72;53281.16;5026878;28;20028;-68
2022/07/30 08:08:06;;;;;;;38.55;15.40;;;;;;;-144.47;75.18;53241.44;5009100;28;20394;-68
2022/07/30 08:10:31;;;;;;;31.17;15.10;;;;;;;-144.47;75.48;53297.03;5012040;28;20017;-66
2022/07/30 08:12:57;;;;;;;35.08;15.27;;;;;;;-144.47;75.58;53269.22;5026589;28;20028;-68
2022/07/30 08:15:23;;;;;;;34.05;14.43;;;;;;;-144.47;75.60;53213.63;5011865;28;20030;-66
2022/07/30 08:17:48;;;;;;;28.08;13.52;;;;;;;-144.47;74.87;53233.47;5009920;28;20025;-67
2022/07/30 08:20:15;;;;;;;33.70;14.40;;;;;;;-144.47;74.80;53235.47;5027242;28;20041;-68
2022/07/30 08:22:41;;;;;;;37.28;14.60;;;;;;;-144.47;74.64;53269.22;5026558;28;20342;-68
2022/07/30 08:25:07;;;;;;;30.60;14.15;;;;;;;-144.47;75.51;53291.09;5027438;28;20329;-66
2022/07/30 08:27:33;;;;;;;31.88;13.63;;;;;;;-144.47;75.43;53287.13;5009923;28;20026;-68
2022/07/30 08:30:02;;;;;;;35.97;14.48;;;;;;;-144.47;75.46;53279.16;5026924;28;20188;-67
2022/07/30 08:32:28;;;;;;;23.98;13.73;;;;;;;-144.47;74.84;53253.34;5009686;28;20113;-67
2022/07/30 08:34:53;;;;;;;31.65;14.35;;;;;;;-144.47;74.88;53259.31;5001556;28;20512;-67
2022/07/30 08:37:18;;;;;;;33.00;14.45;;;;;;;-144.47;75.04;53293.06;4993929;28;20030;-67
2022/07/30 08:39:44;;;;;;;32.95;14.70;;;;;;;-144.47;75.16;53261.28;5008590;28;20391;-70
2022/07/30 08:42:12;;;;;;;31.58;15.70;;;;;;;-144.47;75.21;53267.25;5023888;28;20109;-69
2022/07/30 08:44:39;;;;;;;37.00;14.93;;;;;;;-144.47;75.38;53233.47;5027303;28;20499;-67
2022/07/30 08:47:08;;;;;;;37.22;16.15;;;;;;;-144.47;75.19;53263.28;5026267;28;20029;-66
2022/07/30 08:49:36;;;;;;;40.42;15.02;;;;;;;-144.47;74.96;53271.22;5026602;28;20026;-68
2022/07/30 08:52:01;;;;;;;33.95;14.77;;;;;;;-144.47;75.30;53289.09;5011055;28;20061;-68
2022/07/30 08:54:27;;;;;;;31.10;14.57;;;;;;;-144.47;75.21;53279.16;5026441;28;20061;-69
2022/07/30 08:56:53;;;;;;;24.17;13.27;;;;;;;-144.47;74.83;53285.13;5002414;28;20082;-65
2022/07/30 08:59:22;;;;;;;35.35;17.00;;;;;;;-144.47;74.87;53253.34;4987319;28;20030;-68
2022/07/30 09:01:48;;;;;;;34.55;14.55;;;;;;;-144.47;75.29;53245.41;5005849;28;20058;-68
2022/07/30 09:04:14;;;;;;;37.17;15.52;;;;;;;-144.47;74.85;53279.16;4991808;28;20105;-69
2022/07/30 09:06:39;;;;;;;28.85;15.93;;;;;;;-144.47;74.82;53271.22;4992471;28;20444;-66
2022/07/30 09:09:05;;;;;;;30.17;16.38;;;;;;;-144.47;74.99;53287.13;5008972;28;21645;-68
2022/07/30 09:11:34;;;;;;;33.42;15.77;;;;;;;-144.47;73.48;53273.22;5024102;28;20018;-68
2022/07/30 09:14:11;;;;;;;32.65;15.18;;;;;;;-144.47;74.39;53289.09;5003098;28;20026;-69
2022/07/30 09:16:37;;;;;;;30.80;15.60;;;;;;;-144.47;75.00;53265.25;5009635;28;20033;-68
2022/07/30 09:19:17;;;;;;;35.50;14.50;;;;;;;-144.47;73.96;53283.13;5010278;28;20030;-69
2022/07/30 09:21:58;;;;;;;46.30;16.50;;;;;;;-144.47;74.56;53303.00;5026515;28;20551;-66
2022/07/30 09:24:24;;;;;;;38.90;16.10;;;;;;;-144.47;75.46;53261.28;5011295;28;20154;-66
2022/07/30 09:26:59;;;;;;;30.40;15.50;;;;;;;-144.47;74.39;53253.34;5008921;28;20076;-69
2022/07/30 09:29:27;;;;;;;29.75;14.35;;;;;;;-144.47;74.28;53277.19;5011291;28;20550;-64
2022/07/30 09:31:53;;;;;;;32.87;16.87;;;;;;;-144.47;73.49;53301.03;5025462;28;20340;-66
2022/07/30 09:34:27;;;;;;;39.15;16.40;;;;;;;-144.47;74.05;53291.09;5001191;28;20462;-66
2022/07/30 09:36:55;;;;;;;32.70;16.80;;;;;;;-144.47;73.67;53269.22;5010354;28;20369;-69
2022/07/30 09:39:29;;;;;;;31.23;15.50;;;;;;;-144.47;73.84;53263.28;5025538;28;20030;-65
2022/07/30 09:41:55;;;;;;;33.50;15.43;;;;;;;-144.47;73.00;53267.25;5009698;28;20114;-69
2022/07/30 09:44:28;;;;;;;31.17;15.63;;;;;;;-144.47;73.84;53299.03;5010822;28;20164;-68
2022/07/30 09:46:55;;;;;;;31.30;16.65;;;;;;;-144.47;74.29;53271.22;5024672;28;20116;-67
2022/07/30 09:49:26;;;;;;;33.92;16.48;;;;;;;-144.47;74.57;53251.34;5026100;28;20037;-67
2022/07/30 09:51:52;;;;;;;37.78;16.35;;;;;;;-144.47;74.49;53279.16;5010327;28;20087;-68
2022/07/30 09:54:18;;;;;;;30.45;17.10;;;;;;;-144.47;73.64;53253.34;5008158;28;20022;-68
2022/07/30 09:56:45;;;;;;;31.13;15.25;;;;;;;-144.47;73.30;53275.19;5000996;28;20041;-66
2022/07/30 09:59:26;;;;;;;34.67;15.88;;;;;;;-144.47;73.83;53277.19;4983234;28;20500;-67
2022/07/30 10:01:54;;;;;;;35.83;16.25;;;;;;;-144.47;73.10;53305.00;5003677;28;20064;-67
2022/07/30 10:04:37;;;;;;;36.05;18.02;;;;;;;-144.47;73.27;53231.50;5009982;28;20514;-68
2022/07/30 10:07:03;;;;;;;41.85;18.15;;;;;;;-144.47;74.03;53273.22;5024201;28;20037;-69
2022/07/30 10:09:33;;;;;;;38.88;18.13;;;;;;;-144.47;72.96;53287.13;5010077;28;20029;-66
2022/07/30 10:12:02;;;;;;;34.90;16.35;;;;;;;-144.47;72.60;53281.16;5007967;28;20040;-65
2022/07/30 10:14:31;;;;;;;31.60;16.67;;;;;;;-144.47;72.72;53271.22;5009693;28;20391;-66
2022/07/30 10:16:57;;;;;;;35.03;16.35;;;;;;;-144.47;72.55;53291.09;5023393;28;20113;-66
2022/07/30 10:19:23;;;;;;;36.83;18.60;;;;;;;-144.47;72.48;53237.44;5009620;28;20045;-67
2022/07/30 10:21:55;;;;;;;36.80;17.10;;;;;;;-144.47;72.75;53291.09;5009441;28;20025;-66
2022/07/30 10:24:21;;;;;;;29.52;17.13;;;;;;;-144.47;72.73;53291.09;5009099;28;20045;-67
2022/07/30 10:26:48;;;;;;;48.88;19.27;;;;;;;-144.47;72.50;53235.47;5006796;28;20098;-65
2022/07/30 10:29:18;;;;;;;36.10;17.52;;;;;;;-144.47;73.30;53271.22;5009268;28;20021;-68
2022/07/30 10:31:46;;;;;;;34.97;16.52;;;;;;;-144.47;72.91;53291.09;5024039;28;20394;-68
2022/07/30 10:34:13;;;;;;;46.10;19.13;;;;;;;-144.47;73.75;53259.31;4999527;28;20022;-67
2022/07/30 10:36:51;;;;;;;37.13;16.35;;;;;;;-144.47;73.73;53295.06;5007857;28;20400;-67
2022/07/30 10:39:25;;;;;;;37.83;18.93;;;;;;;-144.47;74.55;53287.13;5003213;28;20547;-67
2022/07/30 10:42:27;;;;;;;42.33;19.55;;;;;;;-144.47;74.34;53287.13;5005108;28;20299;-65
2022/07/30 10:45:09;;;;;;;35.72;17.73;;;;;;;-144.47;75.11;53297.03;5022415;28;20101;-67
2022/07/30 10:47:37;;;;;;;39.75;19.40;;;;;;;-144.47;75.96;53293.06;5007407;28;20032;-67
2022/07/30 10:50:09;;;;;;;44.05;17.95;;;;;;;-144.47;75.61;53285.13;5008353;28;20101;-67
2022/07/30 10:52:52;;;;;;;44.50;18.13;;;;;;;-144.47;75.54;53269.22;5007071;28;20036;-69
2022/07/30 10:55:23;;;;;;;42.47;18.15;;;;;;;-144.47;76.45;53279.16;5009262;28;20095;-66
2022/07/30 10:58:05;;;;;;;32.50;18.40;;;;;;;-144.47;75.69;53297.03;5007273;28;20022;-67
2022/07/30 11:00:36;;;;;;;43.90;21.77;;;;;;;-144.47;77.00;53320.88;4996465;28;20509;-68
2022/07/30 11:03:11;;;;;;;37.97;19.40;;;;;;;-144.47;76.33;53269.22;5004519;28;20045;-67
2022/07/30 11:05:37;;;;;;;35.47;18.65;;;;;;;-144.47;76.08;53271.22;5007812;28;20061;-65
2022/07/30 11:08:36;;;;;;;40.25;19.67;;;;;;;-144.47;76.45;53295.06;5007387;28;20115;-68